Time;durP1;ratioP1;P1;durP2;ratioP2;P2;SDS_P1;SDS_P2;PMS_P1;PMS_P2;Temp;Humidity;BMP_temperature;BMP_pressure;BME280_temperature;BME280_humidity;BME280_pressure;Samples;Min_cycle;Max_cycle;Signal;HPM_P1;HPM_P2
2021/07/11 00:00:11;;;;;;;10.48;9.35;;;;;;;22.21;57.28;101650.50;4994695;28;20093;-76
2021/07/11 00:02:36;;;;;;;10.80;8.85;;;;;;;22.18;57.35;101645.28;4994909;28;20026;-76
2021/07/11 00:05:05;;;;;;;10.23;9.23;;;;;;;22.15;57.33;101642.66;4993466;28;20053;-76
2021/07/11 00:07:31;;;;;;;11.05;9.20;;;;;;;22.21;57.35;101655.78;4977137;28;20030;-76
2021/07/11 00:09:59;;;;;;;10.10;8.73;;;;;;;22.19;57.45;101649.66;4993549;28;20616;-76
2021/07/11 00:12:26;;;;;;;8.90;7.97;;;;;;;22.20;57.08;101664.56;4993577;28;20357;-76
2021/07/11 00:14:52;;;;;;;10.02;9.00;;;;;;;22.21;57.41;101668.94;4993202;28;20056;-76
2021/07/11 00:17:18;;;;;;;9.30;8.40;;;;;;;22.22;57.26;101672.47;4993438;28;20527;-76
2021/07/11 00:19:43;;;;;;;9.88;8.88;;;;;;;22.22;57.28;101677.72;4993455;28;20049;-76
2021/07/11 00:22:09;;;;;;;10.77;9.65;;;;;;;22.21;57.19;101676.84;5014236;28;20072;-76
2021/07/11 00:24:38;;;;;;;9.48;8.48;;;;;;;22.18;57.22;101676.03;4979853;28;20044;-76
2021/07/11 00:27:04;;;;;;;11.00;8.35;;;;;;;22.20;57.18;101669.81;4996239;28;20022;-76
2021/07/11 00:29:29;;;;;;;10.07;8.75;;;;;;;22.20;57.26;101666.34;4996552;28;20132;-76
2021/07/11 00:31:55;;;;;;;8.90;8.00;;;;;;;22.18;57.16;101654.94;4996492;28;20555;-76
2021/07/11 00:34:20;;;;;;;10.10;9.05;;;;;;;22.20;57.20;101661.94;4964181;28;20418;-76
2021/07/11 00:36:46;;;;;;;10.45;8.82;;;;;;;22.20;57.27;101653.19;5013487;28;20121;-73
2021/07/11 00:39:11;;;;;;;11.40;10.20;;;;;;;22.17;57.27;101648.81;4996154;28;20370;-72
2021/07/11 00:41:39;;;;;;;10.20;9.13;;;;;;;22.14;57.29;101648.81;5013777;28;20483;-72
2021/07/11 00:44:07;;;;;;;9.10;8.20;;;;;;;22.17;57.15;101654.06;4996200;28;20033;-72
2021/07/11 00:46:33;;;;;;;10.85;9.60;;;;;;;22.19;57.40;101662.84;5013864;28;20026;-72
2021/07/11 00:48:58;;;;;;;9.05;8.05;;;;;;;22.17;57.59;101661.97;5013708;28;20092;-73
2021/07/11 00:51:24;;;;;;;10.25;9.27;;;;;;;22.16;57.22;101654.06;4981462;28;20472;-73
2021/07/11 00:53:53;;;;;;;9.73;8.73;;;;;;;22.17;57.16;101659.34;4965313;28;20069;-73
2021/07/11 00:56:19;;;;;;;11.10;8.32;;;;;;;22.16;57.29;101659.34;5015465;28;20036;-72
2021/07/11 00:58:44;;;;;;;10.18;9.15;;;;;;;22.17;57.43;101667.25;4996269;28;20385;-72
2021/07/11 01:01:15;;;;;;;9.95;9.00;;;;;;;22.16;57.43;101660.22;4996109;28;20018;-73
2021/07/11 01:03:44;;;;;;;10.52;8.65;;;;;;;22.17;57.47;101661.09;5013520;28;20040;-72
2021/07/11 01:06:10;;;;;;;11.05;9.30;;;;;;;22.16;57.28;101665.50;4995759;28;20032;-73
2021/07/11 01:08:41;;;;;;;9.40;8.50;;;;;;;22.19;57.49;101667.25;5013718;28;20026;-72
2021/07/11 01:11:10;;;;;;;9.60;8.65;;;;;;;22.17;57.30;101664.59;4996123;28;20029;-72
2021/07/11 01:13:38;;;;;;;9.93;8.93;;;;;;;22.17;57.20;101667.25;5013196;28;20484;-72
2021/07/11 01:16:10;;;;;;;10.32;8.77;;;;;;;22.07;57.22;101645.34;4995776;28;20465;-73
2021/07/11 01:18:38;;;;;;;8.75;7.85;;;;;;;22.15;57.33;101652.31;4995604;28;20036;-73
2021/07/11 01:21:08;;;;;;;10.02;8.95;;;;;;;22.18;57.40;101657.59;4996074;28;20100;-72
2021/07/11 01:23:55;;;;;;;9.63;8.65;;;;;;;22.17;57.42;101664.59;4995720;28;20137;-72
2021/07/11 01:26:22;;;;;;;11.75;9.18;;;;;;;22.15;57.48;101660.22;5013209;28;20465;-72
2021/07/11 01:28:48;;;;;;;9.50;8.50;;;;;;;22.17;57.63;101661.09;4995819;28;20026;-72
2021/07/11 01:31:15;;;;;;;8.55;7.70;;;;;;;22.17;57.53;101666.38;4995966;28;20379;-72
2021/07/11 01:33:43;;;;;;;9.43;8.18;;;;;;;22.17;57.40;101669.00;5013692;28;20018;-73
2021/07/11 01:36:11;;;;;;;10.10;8.98;;;;;;;22.17;57.51;101663.72;4997016;28;20038;-73
2021/07/11 01:38:37;;;;;;;8.95;8.05;;;;;;;22.15;57.37;101668.13;4999281;28;20029;-73
2021/07/11 01:41:04;;;;;;;9.88;8.98;;;;;;;22.15;57.58;101670.75;4999716;28;20384;-72
2021/07/11 01:43:30;;;;;;;9.52;8.60;;;;;;;22.17;57.55;101677.78;4999315;28;20041;-73
2021/07/11 01:45:56;;;;;;;11.13;9.07;;;;;;;22.13;57.72;101673.41;4983208;28;20388;-73
2021/07/11 01:48:22;;;;;;;9.57;8.60;;;;;;;22.16;57.47;101678.66;4999637;28;20029;-73
2021/07/11 01:50:53;;;;;;;9.43;8.52;;;;;;;22.16;57.54;101673.41;5017245;28;20029;-72
2021/07/11 01:53:23;;;;;;;9.98;8.95;;;;;;;22.16;57.58;101672.53;5017287;28;20036;-75
2021/07/11 01:55:50;;;;;;;8.45;7.57;;;;;;;22.14;57.59;101658.47;5016846;28;20041;-73
2021/07/11 01:58:17;;;;;;;9.20;8.32;;;;;;;22.13;57.34;101657.59;4999689;28;20038;-72
2021/07/11 02:00:42;;;;;;;8.68;7.75;;;;;;;22.13;57.27;101660.22;4982854;28;20040;-73
2021/07/11 02:03:18;;;;;;;8.57;7.75;;;;;;;22.15;57.52;101661.09;4999344;28;20085;-72
2021/07/11 02:05:45;;;;;;;9.75;8.75;;;;;;;22.14;57.72;101653.22;5016830;28;20030;-72
2021/07/11 02:08:14;;;;;;;9.07;8.15;;;;;;;22.12;57.47;101653.22;5016814;28;20030;-73
2021/07/11 02:10:43;;;;;;;8.13;7.32;;;;;;;22.15;57.59;101658.47;4999405;28;20034;-73
2021/07/11 02:13:17;;;;;;;9.40;8.50;;;;;;;22.13;57.66;101656.72;4998595;28;20468;-72
2021/07/11 02:15:48;;;;;;;8.32;7.53;;;;;;;22.12;57.59;101649.72;5016432;28;20473;-72
2021/07/11 02:18:17;;;;;;;9.00;7.97;;;;;;;22.13;57.71;101662.00;4998697;28;20034;-72
2021/07/11 02:20:47;;;;;;;8.68;7.72;;;;;;;22.15;57.65;101655.84;4998476;28;20129;-72
2021/07/11 02:23:13;;;;;;;8.02;7.22;;;;;;;22.13;57.65;101656.72;4982274;28;20026;-72
2021/07/11 02:25:39;;;;;;;9.60;8.30;;;;;;;22.17;57.67;101663.72;5016103;28;20026;-73
2021/07/11 02:28:05;;;;;;;9.52;8.27;;;;;;;22.13;57.50;101660.22;4998497;28;20038;-73
2021/07/11 02:30:40;;;;;;;8.00;7.20;;;;;;;22.15;57.62;101666.38;4998562;28;20037;-73
2021/07/11 02:33:11;;;;;;;9.25;8.35;;;;;;;22.16;57.73;101669.88;4998425;28;20034;-73
2021/07/11 02:35:40;;;;;;;10.25;9.23;;;;;;;22.12;57.67;101661.13;4982780;28;20129;-73
2021/07/11 02:38:07;;;;;;;10.07;8.82;;;;;;;22.13;57.73;101662.88;5015698;28;20089;-72
2021/07/11 02:40:34;;;;;;;9.65;8.75;;;;;;;22.16;57.66;101667.25;5015927;28;20038;-73
2021/07/11 02:43:04;;;;;;;8.20;6.82;;;;;;;22.06;57.68;101651.53;5015864;28;20057;-72
2021/07/11 02:45:32;;;;;;;8.38;7.60;;;;;;;22.13;57.70;101672.53;4998038;28;20022;-72
2021/07/11 02:48:00;;;;;;;9.80;8.80;;;;;;;22.13;57.60;101667.25;5015604;28;20037;-72
2021/07/11 02:50:26;;;;;;;7.93;7.13;;;;;;;22.11;57.73;101659.38;4998562;28;20472;-72
2021/07/11 02:52:54;;;;;;;8.10;7.30;;;;;;;22.15;57.75;101670.75;5015697;28;20034;-73
2021/07/11 02:55:26;;;;;;;7.95;7.25;;;;;;;22.13;57.78;101668.13;5015802;28;20022;-72
2021/07/11 02:57:55;;;;;;;7.45;6.78;;;;;;;22.14;57.82;101669.88;5015512;28;20468;-73
2021/07/11 03:00:21;;;;;;;9.10;7.68;;;;;;;22.12;57.79;101674.28;4998011;28;20029;-73
2021/07/11 03:02:46;;;;;;;7.82;7.03;;;;;;;22.15;57.57;101670.75;5015507;28;20391;-73
2021/07/11 03:05:18;;;;;;;8.98;8.00;;;;;;;22.12;57.46;101663.75;5015500;28;20065;-72
2021/07/11 03:07:43;;;;;;;8.32;6.95;;;;;;;22.15;57.73;101674.28;5015520;28;20345;-72
2021/07/11 03:10:10;;;;;;;7.78;6.97;;;;;;;22.15;57.64;101676.91;4997686;28;20088;-72
2021/07/11 03:12:37;;;;;;;7.75;7.05;;;;;;;22.16;57.55;101675.16;4998188;28;20141;-72
2021/07/11 03:15:03;;;;;;;8.10;7.28;;;;;;;22.15;57.69;101676.91;4997363;28;20030;-73
2021/07/11 03:17:30;;;;;;;7.72;6.40;;;;;;;22.15;57.73;101670.75;5015464;28;20026;-72
2021/07/11 03:19:56;;;;;;;8.05;7.25;;;;;;;22.14;57.71;101669.00;5015714;28;20036;-72
2021/07/11 03:22:24;;;;;;;6.95;6.28;;;;;;;22.14;57.63;101672.53;4981216;28;20058;-72
2021/07/11 03:24:53;;;;;;;8.20;7.30;;;;;;;22.14;57.87;101675.16;4997479;28;20037;-73
2021/07/11 03:27:19;;;;;;;7.97;7.15;;;;;;;22.15;57.73;101673.41;4997458;28;20475;-72
2021/07/11 03:29:54;;;;;;;7.72;6.93;;;;;;;22.12;57.65;101665.50;5014899;28;20096;-72
2021/07/11 03:32:22;;;;;;;7.13;6.40;;;;;;;22.14;57.55;101669.00;5014837;28;20025;-72
2021/07/11 03:34:51;;;;;;;8.85;7.38;;;;;;;22.11;57.59;101664.63;5014910;28;20032;-72
2021/07/11 03:37:20;;;;;;;7.28;6.57;;;;;;;22.12;57.38;101662.88;4997424;28;20062;-72
2021/07/11 03:39:48;;;;;;;7.95;7.15;;;;;;;22.13;57.57;101668.13;5014751;28;20030;-72
2021/07/11 03:42:15;;;;;;;8.63;7.75;;;;;;;22.14;57.64;101666.38;4997064;28;20121;-72
2021/07/11 03:44:47;;;;;;;7.93;6.50;;;;;;;22.14;57.57;101659.34;4997071;28;20431;-72
2021/07/11 03:47:15;;;;;;;8.98;6.75;;;;;;;22.14;57.54;101650.56;4997159;28;20022;-72
2021/07/11 03:49:45;;;;;;;7.50;6.72;;;;;;;22.13;57.53;101644.44;4997030;28;20040;-72
2021/07/11 03:52:12;;;;;;;8.02;7.13;;;;;;;22.14;57.43;101651.44;4996974;28;20400;-72
2021/07/11 03:54:39;;;;;;;7.97;7.18;;;;;;;22.13;57.36;101660.22;4996862;28;20030;-73
2021/07/11 03:57:06;;;;;;;7.25;6.45;;;;;;;22.14;57.45;101664.63;4980684;28;20030;-72
2021/07/11 03:59:33;;;;;;;6.47;5.88;;;;;;;22.14;57.57;101667.25;4996182;28;20119;-72
2021/07/11 04:02:03;;;;;;;7.47;6.70;;;;;;;22.11;57.47;101656.72;5014335;28;20026;-73
2021/07/11 04:04:31;;;;;;;8.77;7.85;;;;;;;22.10;57.39;101652.34;5014137;28;20032;-72
2021/07/11 04:06:57;;;;;;;7.47;6.78;;;;;;;22.12;57.41;101663.75;5014114;28;20384;-72
2021/07/11 04:09:24;;;;;;;8.60;7.18;;;;;;;22.13;57.39;101660.22;4996413;28;20029;-72
2021/07/11 04:11:50;;;;;;;8.48;6.78;;;;;;;22.08;57.39;101647.09;4980465;28;20033;-72
2021/07/11 04:14:18;;;;;;;7.40;6.70;;;;;;;22.08;57.29;101647.09;4996418;28;20052;-72
2021/07/11 04:16:45;;;;;;;6.70;6.05;;;;;;;22.13;57.45;101657.59;4996676;28;20030;-73
2021/07/11 04:19:12;;;;;;;8.02;7.22;;;;;;;22.09;57.41;101645.31;5013939;28;20105;-72
2021/07/11 04:21:39;;;;;;;8.35;6.38;;;;;;;22.09;57.48;101646.19;5013508;28;20119;-73
2021/07/11 04:24:06;;;;;;;7.10;6.25;;;;;;;22.14;57.48;101653.22;4980332;28;20042;-72
2021/07/11 04:26:34;;;;;;;6.05;5.45;;;;;;;22.14;57.38;101656.72;5013863;28;20053;-72
2021/07/11 04:29:01;;;;;;;6.13;5.53;;;;;;;22.13;57.24;101647.06;5013865;28;20105;-72
2021/07/11 04:31:26;;;;;;;5.68;5.15;;;;;;;22.12;57.27;101649.72;4996275;28;20384;-72
2021/07/11 04:33:53;;;;;;;6.38;5.78;;;;;;;22.11;57.35;101648.81;4996115;28;20133;-72
2021/07/11 04:36:18;;;;;;;6.15;5.53;;;;;;;22.14;57.38;101648.81;5013607;28;20109;-72
2021/07/11 04:38:43;;;;;;;7.13;6.30;;;;;;;22.15;57.18;101655.84;5013966;28;20116;-72
2021/07/11 04:41:10;;;;;;;6.00;5.40;;;;;;;22.15;57.26;101653.19;4979499;28;20049;-73
2021/07/11 04:43:37;;;;;;;6.27;5.67;;;;;;;22.14;57.29;101645.31;4995997;28;20030;-72
2021/07/11 04:46:03;;;;;;;7.43;6.28;;;;;;;22.09;57.19;101635.66;4996031;28;20125;-73
2021/07/11 04:48:28;;;;;;;6.63;6.00;;;;;;;22.14;57.26;101655.84;4995995;28;20049;-72
2021/07/11 04:50:54;;;;;;;6.85;5.97;;;;;;;22.14;57.11;101648.81;5013587;28;20109;-72
2021/07/11 04:53:19;;;;;;;6.82;6.13;;;;;;;22.13;57.12;101649.69;4963884;28;20091;-72
2021/07/11 04:55:46;;;;;;;7.40;6.70;;;;;;;22.16;57.18;101657.59;5013582;28;20033;-72
2021/07/11 04:58:13;;;;;;;6.63;6.00;;;;;;;22.17;57.15;101653.19;5013571;28;20037;-72
2021/07/11 05:00:40;;;;;;;6.68;5.97;;;;;;;22.18;56.96;101662.84;5013600;28;20038;-72
2021/07/11 05:03:05;;;;;;;6.82;6.20;;;;;;;22.16;56.68;101654.06;5015420;28;20033;-73
2021/07/11 05:05:34;;;;;;;6.55;5.28;;;;;;;22.18;56.83;101650.56;5029646;28;20030;-73
2021/07/11 05:08:00;;;;;;;6.50;5.75;;;;;;;22.16;56.89;101647.06;5017616;28;20105;-73
2021/07/11 05:10:25;;;;;;;6.57;5.97;;;;;;;22.16;56.89;101644.41;5015095;28;20178;-73
2021/07/11 05:12:51;;;;;;;6.30;5.70;;;;;;;22.19;56.76;101661.97;5000913;28;20481;-72
2021/07/11 05:15:16;;;;;;;5.90;5.30;;;;;;;22.17;56.86;101659.34;4983921;28;20029;-72
2021/07/11 05:17:41;;;;;;;7.55;6.10;;;;;;;22.22;56.73;101662.78;4999758;28;20030;-73
2021/07/11 05:20:07;;;;;;;6.57;5.90;;;;;;;22.24;56.70;101660.16;5016945;28;20041;-73
2021/07/11 05:22:33;;;;;;;7.07;5.88;;;;;;;22.25;56.65;101657.50;4999737;28;20030;-73
2021/07/11 05:24:58;;;;;;;6.35;5.68;;;;;;;22.29;56.59;101661.00;4967230;28;20531;-73
2021/07/11 05:27:24;;;;;;;6.53;5.93;;;;;;;22.31;56.40;101660.13;4983586;28;20026;-72
2021/07/11 05:29:49;;;;;;;7.78;6.97;;;;;;;22.37;56.40;101660.03;4999440;28;20045;-73
2021/07/11 05:32:15;;;;;;;6.50;5.80;;;;;;;22.38;56.24;101659.16;4999674;28;20533;-72
2021/07/11 05:34:41;;;;;;;6.75;5.93;;;;;;;22.39;56.29;101658.28;4999448;28;20596;-73
2021/07/11 05:37:06;;;;;;;7.90;7.15;;;;;;;22.45;56.18;101663.50;5016671;28;20043;-73
2021/07/11 05:39:31;;;;;;;8.02;5.70;;;;;;;22.50;56.14;101662.56;4982989;28;20038;-72
2021/07/11 05:41:57;;;;;;;6.85;6.05;;;;;;;22.50;56.11;101665.22;4999206;28;20034;-73
2021/07/11 05:44:22;;;;;;;6.35;5.75;;;;;;;22.50;56.09;101658.19;5016760;28;20163;-72
2021/07/11 05:46:47;;;;;;;7.63;6.53;;;;;;;22.48;56.15;101669.63;4982985;28;20069;-73
2021/07/11 05:49:13;;;;;;;6.65;5.95;;;;;;;22.53;55.94;101660.78;4982786;28;20030;-73
2021/07/11 05:51:38;;;;;;;7.15;6.55;;;;;;;22.50;56.10;101660.81;4999018;28;20659;-72
2021/07/11 05:54:04;;;;;;;6.57;5.97;;;;;;;22.46;56.43;101672.25;4983155;28;20104;-73
2021/07/11 05:56:29;;;;;;;6.07;5.50;;;;;;;22.40;56.46;101675.84;4998984;28;20546;-73
2021/07/11 05:58:54;;;;;;;7.68;6.88;;;;;;;22.40;56.50;101682.88;4999254;28;20113;-73
2021/07/11 06:01:20;;;;;;;7.13;5.88;;;;;;;22.38;56.65;101693.41;4998990;28;20080;-72
2021/07/11 06:03:45;;;;;;;7.15;6.10;;;;;;;22.37;56.47;101677.63;4982621;28;20136;-73
2021/07/11 06:06:10;;;;;;;7.35;6.65;;;;;;;22.35;56.71;101685.53;4982522;28;20034;-73
2021/07/11 06:08:36;;;;;;;7.45;6.75;;;;;;;22.33;56.79;101684.66;5016205;28;20026;-73
2021/07/11 06:11:01;;;;;;;6.97;6.28;;;;;;;22.34;56.80;101686.41;5016183;28;20030;-73
2021/07/11 06:13:27;;;;;;;6.88;6.18;;;;;;;22.34;56.79;101690.81;5016374;28;20065;-73
2021/07/11 06:15:52;;;;;;;8.40;6.50;;;;;;;22.30;56.89;101686.47;5016133;28;20061;-73
2021/07/11 06:18:18;;;;;;;6.57;5.82;;;;;;;22.32;56.79;101684.69;5016114;28;20029;-73
2021/07/11 06:20:43;;;;;;;8.07;6.57;;;;;;;22.32;56.75;101692.59;5015986;28;20045;-73
2021/07/11 06:23:09;;;;;;;7.07;6.38;;;;;;;22.32;56.83;101692.59;4997872;28;20068;-72
2021/07/11 06:25:36;;;;;;;6.63;5.63;;;;;;;22.30;56.67;101683.84;4998368;28;20112;-72
2021/07/11 06:28:03;;;;;;;10.85;9.40;;;;;;;22.07;56.97;101682.22;5016048;28;20018;-72
2021/07/11 06:30:28;;;;;;;12.20;10.48;;;;;;;21.86;57.28;101679.69;4982266;28;20033;-78
2021/07/11 06:32:53;;;;;;;13.20;10.88;;;;;;;21.86;57.23;101694.59;4998164;28;20033;-72
2021/07/11 06:35:21;;;;;;;14.05;10.82;;;;;;;21.78;57.96;101696.41;4998545;28;20088;-72
2021/07/11 06:37:47;;;;;;;12.75;11.40;;;;;;;21.75;57.92;101697.31;5015560;28;20588;-72
2021/07/11 06:40:16;;;;;;;17.08;12.23;;;;;;;21.71;58.08;101700.81;4998303;28;20451;-73
2021/07/11 06:42:41;;;;;;;13.80;12.43;;;;;;;21.66;58.10;101707.88;4998104;28;20033;-73
2021/07/11 06:45:09;;;;;;;16.27;11.10;;;;;;;21.60;58.36;101707.91;4998289;28;20026;-73
2021/07/11 06:47:34;;;;;;;14.55;11.93;;;;;;;21.61;58.37;101697.38;4998620;28;20026;-73
2021/07/11 06:50:00;;;;;;;13.13;11.32;;;;;;;21.60;58.19;101703.50;4982114;28;20124;-73
2021/07/11 06:52:26;;;;;;;14.02;11.95;;;;;;;21.61;58.33;101702.63;5015770;28;20030;-72
2021/07/11 06:54:51;;;;;;;13.90;12.20;;;;;;;21.59;58.43;101707.03;4998109;28;20033;-73
2021/07/11 06:57:18;;;;;;;14.50;11.93;;;;;;;21.56;58.34;101704.41;4998299;28;20088;-73
2021/07/11 06:59:44;;;;;;;13.65;11.95;;;;;;;21.55;58.53;101701.81;4981895;28;20030;-72
2021/07/11 07:02:09;;;;;;;12.38;11.07;;;;;;;21.60;58.50;101702.63;4997977;28;20495;-72
2021/07/11 07:04:34;;;;;;;14.68;10.60;;;;;;;21.59;58.61;101707.03;4997799;28;20034;-73
2021/07/11 07:07:00;;;;;;;13.75;11.90;;;;;;;21.66;58.03;101697.34;4997742;28;20042;-73
2021/07/11 07:09:25;;;;;;;12.13;10.93;;;;;;;21.70;58.06;101704.34;4997735;28;20041;-72
2021/07/11 07:11:50;;;;;;;12.35;11.00;;;;;;;21.60;58.41;101708.78;4997630;28;20117;-73
2021/07/11 07:14:16;;;;;;;11.90;10.60;;;;;;;21.62;58.10;101701.75;4997538;28;20034;-73
2021/07/11 07:16:41;;;;;;;11.73;10.43;;;;;;;21.69;58.03;101710.47;4981350;28;20056;-72
2021/07/11 07:19:06;;;;;;;12.85;10.52;;;;;;;21.70;57.93;101717.50;5015179;28;20080;-72
2021/07/11 07:21:32;;;;;;;11.73;10.60;;;;;;;21.57;58.43;101716.69;4997224;28;20057;-73
2021/07/11 07:23:57;;;;;;;14.23;12.23;;;;;;;21.59;58.48;101728.09;5015223;28;20478;-73
2021/07/11 07:26:23;;;;;;;13.45;11.45;;;;;;;21.57;58.60;101718.44;5015050;28;20026;-73
2021/07/11 07:28:48;;;;;;;14.55;11.93;;;;;;;21.56;58.43;101728.09;4981275;28;20137;-73
2021/07/11 07:31:14;;;;;;;11.35;10.15;;;;;;;21.60;58.59;101731.59;4997506;28;20029;-73
2021/07/11 07:33:39;;;;;;;13.32;10.80;;;;;;;21.57;58.63;101729.84;5014303;28;20113;-73
2021/07/11 07:36:05;;;;;;;12.57;11.27;;;;;;;21.57;58.58;101728.97;4997145;28;20033;-72
2021/07/11 07:38:30;;;;;;;12.70;11.18;;;;;;;21.57;58.41;101728.97;4997393;28;20060;-73
2021/07/11 07:40:56;;;;;;;14.23;10.63;;;;;;;21.55;58.63;101734.22;5014704;28;20535;-74
2021/07/11 07:43:21;;;;;;;16.52;11.10;;;;;;;21.37;59.53;101735.19;4996989;28;20124;-72
2021/07/11 07:45:47;;;;;;;18.48;12.07;;;;;;;21.19;60.10;101731.69;5014754;28;20030;-72
2021/07/11 07:48:12;;;;;;;13.10;11.73;;;;;;;21.23;60.33;101726.44;4997346;28;20465;-72
2021/07/11 07:50:40;;;;;;;13.18;10.77;;;;;;;21.23;60.44;101730.84;5014559;28;20357;-74
2021/07/11 07:53:05;;;;;;;13.85;11.77;;;;;;;21.30;60.37;101733.44;5014699;28;20056;-73
2021/07/11 07:55:32;;;;;;;15.35;11.25;;;;;;;21.35;60.01;101734.31;4996948;28;20124;-72
2021/07/11 07:57:58;;;;;;;13.60;11.38;;;;;;;21.40;59.97;101734.31;5014548;28;20465;-72
2021/07/11 08:00:24;;;;;;;14.93;11.68;;;;;;;21.42;59.62;101723.78;5014640;28;20464;-73
2021/07/11 08:02:50;;;;;;;13.35;11.35;;;;;;;21.42;59.86;101734.31;4996765;28;20385;-71
2021/07/11 08:05:16;;;;;;;13.15;11.75;;;;;;;21.43;60.11;101730.75;5014427;28;20043;-72
2021/07/11 08:07:42;;;;;;;12.45;10.35;;;;;;;21.45;59.97;101732.50;4996398;28;20390;-72
2021/07/11 08:10:09;;;;;;;13.00;11.63;;;;;;;21.39;60.27;101732.56;4996714;28;20421;-72
2021/07/11 08:12:34;;;;;;;12.55;10.38;;;;;;;21.31;60.61;101732.56;5014439;28;20022;-72
2021/07/11 08:14:59;;;;;;;12.38;10.75;;;;;;;21.26;60.75;101736.97;5014042;28;20041;-72
2021/07/11 08:17:25;;;;;;;13.10;11.75;;;;;;;21.37;60.34;101745.72;4980612;28;20034;-72
2021/07/11 08:19:50;;;;;;;13.73;11.98;;;;;;;21.36;60.20;101754.47;4996829;28;20096;-72
2021/07/11 08:22:16;;;;;;;13.20;9.88;;;;;;;21.31;60.40;101742.19;5013713;28;20141;-72
2021/07/11 08:24:41;;;;;;;12.30;10.82;;;;;;;21.36;60.46;101753.59;5014166;28;20484;-72
2021/07/11 08:27:07;;;;;;;12.30;11.00;;;;;;;21.37;60.34;101756.22;4996444;28;20124;-72
2021/07/11 08:29:33;;;;;;;12.95;11.07;;;;;;;21.38;60.27;101757.97;4996733;28;20088;-72
2021/07/11 08:31:58;;;;;;;16.70;11.40;;;;;;;21.37;60.22;101764.13;4998652;28;20030;-76
2021/07/11 08:34:24;;;;;;;11.85;10.57;;;;;;;21.30;60.34;101757.09;5019277;28;20024;-72
2021/07/11 08:36:52;;;;;;;14.35;10.73;;;;;;;21.34;60.55;101764.13;5003134;28;20098;-72
2021/07/11 08:39:18;;;;;;;10.98;9.82;;;;;;;21.33;60.61;101766.75;5020411;28;20026;-72
2021/07/11 08:41:45;;;;;;;11.25;10.13;;;;;;;21.28;60.61;101758.91;5009168;28;20365;-72
2021/07/11 08:44:10;;;;;;;16.55;11.88;;;;;;;21.31;60.81;101765.88;4981918;28;20033;-72
2021/07/11 08:46:37;;;;;;;11.75;10.52;;;;;;;21.29;60.77;101765.03;4996405;28;20040;-72
2021/07/11 08:49:03;;;;;;;14.13;11.32;;;;;;;21.34;60.63;101768.50;4996279;28;20456;-75
2021/07/11 08:51:29;;;;;;;12.35;11.00;;;;;;;21.28;60.67;101766.78;4996220;28;20037;-72
2021/07/11 08:53:55;;;;;;;16.80;10.63;;;;;;;21.29;60.41;101765.03;5013782;28;20033;-72
2021/07/11 08:56:23;;;;;;;13.38;10.18;;;;;;;21.32;60.64;101778.16;4979900;28;20412;-72
2021/07/11 08:58:51;;;;;;;10.48;9.38;;;;;;;21.32;60.64;101781.66;4996097;28;20033;-72
2021/07/11 09:01:18;;;;;;;12.23;10.93;;;;;;;21.32;60.75;101786.06;4996944;28;20076;-72
2021/07/11 09:03:43;;;;;;;11.35;9.80;;;;;;;21.44;60.54;101786.03;4980909;28;20116;-72
2021/07/11 09:06:12;;;;;;;12.63;8.65;;;;;;;21.44;60.28;101770.22;4981475;28;20069;-75
2021/07/11 09:08:42;;;;;;;9.38;8.40;;;;;;;21.60;60.08;101787.75;4997135;28;20052;-76
2021/07/11 09:11:13;;;;;;;11.70;9.57;;;;;;;21.58;60.46;101773.69;5014949;28;20025;-75
2021/07/11 09:13:39;;;;;;;10.40;8.60;;;;;;;21.67;60.36;101788.63;5013703;28;20018;-75
2021/07/11 09:16:04;;;;;;;12.00;9.82;;;;;;;21.66;60.48;101779.84;4979926;28;20034;-75
2021/07/11 09:18:32;;;;;;;11.75;10.52;;;;;;;21.69;60.79;101782.44;4979994;28;20041;-75
2021/07/11 09:20:58;;;;;;;10.07;8.65;;;;;;;21.65;60.73;101783.34;4993141;28;20396;-78
2021/07/11 09:23:31;;;;;;;11.98;9.07;;;;;;;21.66;61.37;101785.09;4993944;28;20026;-76
2021/07/11 09:26:12;;;;;;;12.80;9.77;;;;;;;21.68;61.28;101793.00;4993808;28;20034;-76
2021/07/11 09:28:43;;;;;;;9.80;8.80;;;;;;;21.72;61.20;101789.47;4994276;28;20544;-76
2021/07/11 09:31:17;;;;;;;9.90;8.90;;;;;;;21.71;61.33;101785.94;4993820;28;20066;-76
2021/07/11 09:33:55;;;;;;;12.48;10.35;;;;;;;21.75;61.30;101785.06;4992495;28;20037;-75
2021/07/11 09:36:22;;;;;;;9.85;8.82;;;;;;;21.76;61.11;101785.94;4992405;28;20026;-76
2021/07/11 09:38:49;;;;;;;9.60;8.20;;;;;;;21.78;61.05;101776.28;4994080;28;20517;-76
2021/07/11 09:41:23;;;;;;;11.15;9.77;;;;;;;21.81;61.11;101776.25;4993707;28;20547;-75
2021/07/11 09:43:51;;;;;;;14.43;9.48;;;;;;;21.83;61.23;101776.25;4993881;28;20034;-76
2021/07/11 09:46:17;;;;;;;9.43;8.38;;;;;;;21.81;61.50;101775.41;4993640;28;20077;-76
2021/07/11 09:48:44;;;;;;;11.32;9.30;;;;;;;21.83;61.62;101777.13;4976057;28;20121;-76
2021/07/11 09:51:28;;;;;;;10.77;9.23;;;;;;;21.85;61.47;101780.63;4993507;28;20080;-76
2021/07/11 09:53:54;;;;;;;9.77;8.85;;;;;;;21.83;61.76;101773.63;4992236;28;20029;-76
2021/07/11 09:56:35;;;;;;;11.10;9.98;;;;;;;21.84;61.55;101765.72;4976137;28;20042;-76
2021/07/11 09:59:03;;;;;;;11.43;10.07;;;;;;;21.90;61.57;101770.09;4996848;28;20065;-76
2021/07/11 10:01:30;;;;;;;12.43;9.27;;;;;;;21.90;61.54;101767.47;4995833;28;20080;-76
2021/07/11 10:03:57;;;;;;;12.20;10.93;;;;;;;21.90;61.51;101767.47;4996928;28;20030;-76
2021/07/11 10:06:23;;;;;;;12.80;9.77;;;;;;;21.91;61.81;101774.47;4979593;28;20038;-75
2021/07/11 10:08:49;;;;;;;10.85;9.82;;;;;;;21.87;61.67;101764.81;4979450;28;20172;-75
2021/07/11 10:11:14;;;;;;;11.73;10.20;;;;;;;21.87;61.94;101770.09;4996000;28;20423;-75
2021/07/11 10:13:40;;;;;;;14.95;11.05;;;;;;;21.89;61.84;101768.34;4995397;28;20030;-75
2021/07/11 10:16:09;;;;;;;14.25;10.02;;;;;;;21.93;61.82;101772.72;4979504;28;20373;-76
2021/07/11 10:18:35;;;;;;;12.55;9.98;;;;;;;21.90;61.95;101765.69;4997613;28;20033;-75
2021/07/11 10:21:01;;;;;;;11.82;10.63;;;;;;;21.94;61.83;101767.41;5006194;28;20137;-75
2021/07/11 10:23:36;;;;;;;13.25;10.90;;;;;;;21.97;61.84;101758.63;5017239;28;20029;-76
2021/07/11 10:26:04;;;;;;;12.50;10.45;;;;;;;21.97;61.43;101753.38;4999463;28;20365;-76
2021/07/11 10:28:32;;;;;;;11.85;9.60;;;;;;;21.99;60.89;101759.53;5016677;28;20017;-76
2021/07/11 10:31:03;;;;;;;15.55;9.80;;;;;;;21.95;60.60;101756.00;5016571;28;20017;-75
2021/07/11 10:33:29;;;;;;;12.85;9.40;;;;;;;22.02;60.59;101744.59;4999548;28;20484;-74
2021/07/11 10:35:55;;;;;;;11.18;10.07;;;;;;;22.03;60.03;101756.00;5016388;28;20026;-74
2021/07/11 10:38:36;;;;;;;9.02;8.13;;;;;;;22.07;60.46;101752.50;5016752;28;20499;-75
2021/07/11 10:41:17;;;;;;;8.52;7.40;;;;;;;22.14;60.08;101751.56;4998884;28;20029;-75
2021/07/11 10:43:45;;;;;;;10.68;9.38;;;;;;;22.17;59.65;101751.53;5016303;28;20411;-75
2021/07/11 10:46:12;;;;;;;9.30;8.30;;;;;;;22.20;59.65;101755.94;5016453;28;20030;-75
2021/07/11 10:48:37;;;;;;;8.80;7.80;;;;;;;22.16;59.87;101744.53;5016110;28;20022;-75
2021/07/11 10:51:03;;;;;;;9.63;7.88;;;;;;;22.21;59.54;101755.88;5016259;28;20036;-75
2021/07/11 10:53:34;;;;;;;10.07;9.02;;;;;;;22.17;59.18;101754.19;5015917;28;20033;-74
2021/07/11 10:56:00;;;;;;;12.13;11.00;;;;;;;22.16;58.57;101767.34;5015811;28;20026;-75
2021/07/11 10:58:36;;;;;;;10.82;9.63;;;;;;;22.13;58.61;101749.81;4998324;28;20115;-75
2021/07/11 11:01:13;;;;;;;11.82;9.95;;;;;;;22.13;58.88;101751.56;4999764;28;20069;-75
2021/07/11 11:03:48;;;;;;;10.15;9.05;;;;;;;22.17;58.77;101767.34;4997850;28;20384;-75
2021/07/11 11:06:15;;;;;;;14.07;11.90;;;;;;;22.06;58.48;101761.28;4998041;28;20026;-74
2021/07/11 11:08:44;;;;;;;14.70;10.68;;;;;;;22.01;58.18;101756.03;5015826;28;20030;-77
2021/07/11 11:11:10;;;;;;;13.10;11.73;;;;;;;22.11;58.26;101751.56;4997897;28;20045;-75
2021/07/11 11:13:35;;;;;;;13.77;11.27;;;;;;;22.18;58.03;101753.31;4981932;28;20030;-76
2021/07/11 11:16:14;;;;;;;17.40;14.25;;;;;;;22.14;58.34;101753.31;5015484;28;20026;-75
2021/07/11 11:18:40;;;;;;;20.35;16.10;;;;;;;22.07;58.00;101747.22;5015420;28;20029;-75